createdAt,value
2023-03-03T00:02:00.320Z,97.00
2023-03-03T00:04:27.613Z,93.50
2023-03-03T00:06:54.765Z,93.03
2023-03-03T00:09:22.063Z,89.63
2023-03-03T00:11:55.088Z,91.28
2023-03-03T00:14:32.618Z,100.03
2023-03-03T00:17:02.147Z,103.55
2023-03-03T00:19:37.369Z,97.75
2023-03-03T00:22:13.094Z,90.68
2023-03-03T00:24:40.330Z,99.85
2023-03-03T00:27:28.549Z,97.72
2023-03-03T00:29:57.027Z,99.80
2023-03-03T00:32:43.524Z,95.57
2023-03-03T00:35:41.510Z,96.90
2023-03-03T00:38:15.041Z,104.30
2023-03-03T00:40:42.686Z,102.68
2023-03-03T00:43:16.246Z,93.10
2023-03-03T00:45:43.417Z,88.57
2023-03-03T00:48:30.894Z,96.53
2023-03-03T00:50:59.171Z,105.18
2023-03-03T00:53:27.657Z,105.38
2023-03-03T00:55:55.125Z,102.53
2023-03-03T00:58:23.086Z,102.15
2023-03-03T01:00:51.928Z,106.28
2023-03-03T01:03:21.678Z,108.13
2023-03-03T01:05:49.769Z,99.80
2023-03-03T01:08:17.205Z,112.43
2023-03-03T01:10:46.867Z,124.68
2023-03-03T01:13:14.126Z,112.63
2023-03-03T01:15:41.719Z,111.07
2023-03-03T01:18:09.871Z,110.53
2023-03-03T01:20:36.995Z,117.45
2023-03-03T01:23:04.545Z,117.60
2023-03-03T01:25:31.986Z,118.38
2023-03-03T01:27:59.244Z,112.18
2023-03-03T01:30:26.999Z,112.30
2023-03-03T01:32:54.594Z,107.78
2023-03-03T01:35:21.926Z,123.47
2023-03-03T01:37:49.263Z,120.75
2023-03-03T01:40:18.910Z,111.70
2023-03-03T01:42:46.162Z,118.85
2023-03-03T01:45:19.524Z,112.13
2023-03-03T01:50:15.950Z,117.78
2023-03-03T01:52:44.380Z,115.25
2023-03-03T01:55:22.908Z,112.82
2023-03-03T01:57:53.433Z,123.97
2023-03-03T02:00:20.678Z,126.00
2023-03-03T02:02:48.003Z,122.47
2023-03-03T02:05:16.135Z,117.88
2023-03-03T02:07:43.380Z,111.28
2023-03-03T02:10:15.954Z,115.10
2023-03-03T02:12:43.161Z,114.97
2023-03-03T02:15:17.632Z,125.53
2023-03-03T02:17:45.242Z,115.53
2023-03-03T02:20:15.835Z,115.63
2023-03-03T02:22:48.550Z,114.55
2023-03-03T02:25:19.320Z,118.55
2023-03-03T02:27:46.487Z,123.57
2023-03-03T02:30:19.291Z,115.00
2023-03-03T02:32:46.511Z,115.97
2023-03-03T02:35:28.144Z,116.50
2023-03-03T02:37:56.264Z,112.93
2023-03-03T02:40:26.044Z,123.28
2023-03-03T02:42:54.477Z,122.63
2023-03-03T02:45:21.793Z,121.50
2023-03-03T02:47:52.720Z,127.60
2023-03-03T02:50:20.090Z,124.30
2023-03-03T02:52:47.452Z,119.55
2023-03-03T02:55:16.600Z,132.57
2023-03-03T02:57:43.810Z,126.65
2023-03-03T03:00:11.321Z,127.63
2023-03-03T03:02:38.487Z,114.75
2023-03-03T03:05:05.774Z,113.78
2023-03-03T03:07:32.949Z,110.88
2023-03-03T03:10:00.180Z,120.70
2023-03-03T03:12:28.006Z,123.88
2023-03-03T03:14:55.129Z,111.63
2023-03-03T03:17:22.335Z,115.18
2023-03-03T03:19:49.563Z,116.65
2023-03-03T03:22:16.727Z,116.97
2023-03-03T03:24:43.908Z,116.13
2023-03-03T03:27:11.070Z,112.32
2023-03-03T03:29:38.320Z,103.15
2023-03-03T03:32:05.636Z,118.90
2023-03-03T03:34:32.859Z,116.90
2023-03-03T03:37:00.127Z,96.60
2023-03-03T03:39:30.116Z,108.90
2023-03-03T03:41:57.406Z,115.93
2023-03-03T03:44:25.298Z,108.40
2023-03-03T03:46:52.507Z,117.80
2023-03-03T03:49:20.922Z,101.18
2023-03-03T03:51:48.193Z,106.72
2023-03-03T03:54:15.375Z,91.38
2023-03-03T03:56:42.461Z,96.75
2023-03-03T03:59:09.616Z,105.15
2023-03-03T04:01:36.877Z,101.75
2023-03-03T04:04:05.086Z,99.53
2023-03-03T04:06:32.717Z,91.53
2023-03-03T04:08:59.861Z,109.53
2023-03-03T04:11:27.006Z,104.40
2023-03-03T04:13:54.162Z,102.35
2023-03-03T04:16:21.363Z,98.22
2023-03-03T04:18:48.591Z,101.72
2023-03-03T04:21:16.113Z,95.53
2023-03-03T04:23:43.456Z,109.45
2023-03-03T04:26:11.447Z,104.63
2023-03-03T04:28:38.684Z,96.25
2023-03-03T04:31:06.023Z,88.60
2023-03-03T04:33:33.267Z,93.55
2023-03-03T04:36:00.724Z,90.55
2023-03-03T04:38:27.905Z,90.18
2023-03-03T04:40:55.059Z,95.32
2023-03-03T04:43:22.274Z,95.55
2023-03-03T04:45:49.709Z,93.05
2023-03-03T04:48:16.840Z,92.15
2023-03-03T04:50:44.050Z,88.38
2023-03-03T04:53:11.327Z,92.07
2023-03-03T04:55:38.802Z,96.80
2023-03-03T04:58:06.360Z,98.90
2023-03-03T05:00:33.940Z,94.07
2023-03-03T05:03:01.638Z,99.95
2023-03-03T05:05:28.745Z,95.72
2023-03-03T05:07:56.036Z,101.72
2023-03-03T05:10:23.207Z,96.35
2023-03-03T05:12:50.428Z,91.40
2023-03-03T05:15:17.689Z,100.40
2023-03-03T05:17:44.937Z,92.78
2023-03-03T05:20:15.724Z,95.97
2023-03-03T05:22:42.920Z,103.38
2023-03-03T05:25:11.182Z,103.28
2023-03-03T05:27:38.318Z,105.20
2023-03-03T05:30:05.726Z,91.38
2023-03-03T05:32:33.386Z,97.47
2023-03-03T05:35:00.503Z,100.50
2023-03-03T05:37:27.658Z,97.18
2023-03-03T05:39:54.784Z,98.25
2023-03-03T05:42:22.086Z,106.18
2023-03-03T05:44:49.237Z,101.07
2023-03-03T05:47:16.463Z,104.95
2023-03-03T05:49:43.627Z,107.55
2023-03-03T05:52:10.879Z,107.93
2023-03-03T05:54:38.033Z,97.22
2023-03-03T05:57:05.190Z,111.20
2023-03-03T05:59:32.458Z,108.47
2023-03-03T06:01:59.907Z,105.68
2023-03-03T06:04:27.066Z,109.55
2023-03-03T06:06:54.343Z,111.97
2023-03-03T06:09:25.661Z,105.82
2023-03-03T06:11:53.663Z,103.90
2023-03-03T06:14:21.443Z,113.28
2023-03-03T06:16:49.121Z,118.90
2023-03-03T06:19:16.409Z,108.32
2023-03-03T06:21:43.862Z,109.05
2023-03-03T06:24:11.094Z,101.63
2023-03-03T06:26:38.356Z,101.00
2023-03-03T06:29:05.606Z,110.53
2023-03-03T06:31:32.950Z,94.20
2023-03-03T06:34:00.166Z,101.47
2023-03-03T06:36:27.411Z,100.80
2023-03-03T06:38:54.676Z,121.47
2023-03-03T06:41:21.918Z,107.60
2023-03-03T06:43:49.299Z,105.88
2023-03-03T06:46:17.391Z,96.68
2023-03-03T06:48:44.711Z,94.13
2023-03-03T06:51:35.595Z,107.70
2023-03-03T06:54:03.921Z,248.90
2023-03-03T06:56:32.094Z,173.60
2023-03-03T06:59:00.274Z,131.73
2023-03-03T07:01:28.339Z,231.35
2023-03-03T07:03:55.628Z,296.65
2023-03-03T07:06:24.479Z,171.02
2023-03-03T07:08:52.830Z,90.82
2023-03-03T07:11:21.515Z,91.05
2023-03-03T07:13:50.624Z,127.45
2023-03-03T07:16:18.854Z,172.90
2023-03-03T07:18:56.137Z,133.73
2023-03-03T07:21:26.145Z,259.23
2023-03-03T07:23:54.180Z,202.25
2023-03-03T07:26:23.320Z,299.52
2023-03-03T07:28:55.626Z,67.25
2023-03-03T07:31:31.252Z,73.97
2023-03-03T07:34:00.186Z,75.18
2023-03-03T07:36:37.095Z,74.97
2023-03-03T07:39:13.171Z,75.07
2023-03-03T07:41:42.993Z,75.00
2023-03-03T07:44:20.050Z,67.72
2023-03-03T07:46:51.994Z,76.28
2023-03-03T07:49:32.617Z,80.00
2023-03-03T07:52:00.462Z,62.75
2023-03-03T07:54:30.757Z,68.80
2023-03-03T07:57:08.150Z,64.72
2023-03-03T07:59:36.171Z,68.10
2023-03-03T08:02:03.394Z,56.53
2023-03-03T08:04:41.944Z,58.15
2023-03-03T08:07:16.518Z,60.08
2023-03-03T08:09:45.324Z,52.95
2023-03-03T08:12:15.570Z,54.95
2023-03-03T08:14:42.909Z,56.17
2023-03-03T08:17:16.966Z,58.38
2023-03-03T08:19:44.214Z,52.00
2023-03-03T08:22:27.845Z,46.63
2023-03-03T08:27:22.771Z,42.65
2023-03-03T08:29:50.466Z,44.63
2023-03-03T08:32:17.786Z,37.90
2023-03-03T08:34:45.155Z,40.85
2023-03-03T08:37:12.416Z,80.07
2023-03-03T08:39:40.041Z,48.78
2023-03-03T08:42:07.197Z,45.03
2023-03-03T08:44:34.356Z,46.00
2023-03-03T08:47:01.575Z,44.28
2023-03-03T08:49:28.744Z,51.03
2023-03-03T08:51:57.043Z,44.50
2023-03-03T08:54:24.265Z,45.42
2023-03-03T08:56:51.895Z,41.25
2023-03-03T08:59:20.485Z,41.95
2023-03-03T09:01:47.730Z,43.17
2023-03-03T09:04:14.997Z,51.90
2023-03-03T09:06:42.160Z,44.80
2023-03-03T09:09:09.412Z,41.58
2023-03-03T09:11:36.545Z,45.42
2023-03-03T09:14:08.515Z,41.83
2023-03-03T09:16:38.593Z,45.65
2023-03-03T09:19:24.437Z,40.38
2023-03-03T09:21:55.032Z,44.58
2023-03-03T09:24:26.441Z,42.85
2023-03-03T09:26:53.719Z,44.15
2023-03-03T09:29:28.074Z,42.28
2023-03-03T09:32:03.302Z,35.42
2023-03-03T09:34:43.813Z,47.28
2023-03-03T09:37:17.662Z,39.90
2023-03-03T09:39:45.025Z,40.83
2023-03-03T09:42:18.847Z,37.97
2023-03-03T09:44:57.397Z,41.35
2023-03-03T09:47:44.473Z,38.88
2023-03-03T09:50:24.022Z,62.67
2023-03-03T09:53:03.560Z,43.35
2023-03-03T09:55:30.784Z,33.97
2023-03-03T09:58:11.241Z,33.35
2023-03-03T10:01:04.922Z,38.17
2023-03-03T10:03:38.404Z,32.97
2023-03-03T10:06:10.522Z,39.40
2023-03-03T10:08:37.955Z,39.00
2023-03-03T10:11:24.072Z,40.65
2023-03-03T10:13:54.175Z,33.08
2023-03-03T10:16:22.182Z,41.05
2023-03-03T10:18:56.502Z,43.35
2023-03-03T10:21:37.379Z,40.78
2023-03-03T10:24:23.440Z,38.83
2023-03-03T10:27:13.483Z,42.25
2023-03-03T10:29:59.811Z,36.53
2023-03-03T10:32:30.285Z,45.95
2023-03-03T10:35:00.581Z,44.15
2023-03-03T10:37:46.465Z,32.63
2023-03-03T10:40:30.124Z,29.73
2023-03-03T10:45:50.831Z,58.63
2023-03-03T10:48:30.368Z,53.30
2023-03-03T10:51:08.909Z,29.83
2023-03-03T10:53:41.485Z,28.05
2023-03-03T10:56:16.031Z,35.35
2023-03-03T10:58:51.638Z,32.17
2023-03-03T11:01:33.089Z,28.23
2023-03-03T11:04:05.759Z,31.25
2023-03-03T11:06:44.322Z,32.75
2023-03-03T11:09:15.552Z,27.60
2023-03-03T11:12:01.888Z,29.25
2023-03-03T11:15:04.621Z,26.90
2023-03-03T11:17:42.429Z,22.02
2023-03-03T11:20:21.790Z,22.98
2023-03-03T11:23:00.101Z,25.25
2023-03-03T11:25:36.111Z,22.10
2023-03-03T11:28:03.247Z,27.38
2023-03-03T11:30:42.856Z,23.38
2023-03-03T11:33:16.377Z,34.40
2023-03-03T11:36:02.496Z,25.88
2023-03-03T11:38:35.105Z,23.65
2023-03-03T11:41:21.169Z,33.50
2023-03-03T11:43:52.506Z,31.85
2023-03-03T11:46:23.514Z,29.98
2023-03-03T11:48:59.736Z,25.10
2023-03-03T11:51:30.014Z,38.97
2023-03-03T11:53:57.102Z,37.95
2023-03-03T11:56:41.276Z,31.80
2023-03-03T11:59:27.061Z,29.35
2023-03-03T12:01:56.736Z,31.23
2023-03-03T12:04:34.960Z,22.45
2023-03-03T12:07:20.034Z,26.80
2023-03-03T12:10:03.828Z,24.70
2023-03-03T12:12:39.266Z,21.85
2023-03-03T12:15:15.770Z,32.75
2023-03-03T12:17:52.778Z,23.35
2023-03-03T12:20:22.768Z,24.13
2023-03-03T12:23:05.965Z,20.10
2023-03-03T12:25:58.113Z,22.38
2023-03-03T12:28:28.550Z,26.15
2023-03-03T12:31:04.477Z,19.30
2023-03-03T12:33:31.881Z,19.73
2023-03-03T12:36:11.516Z,20.90
2023-03-03T12:38:50.253Z,18.88
2023-03-03T12:41:17.527Z,17.60
2023-03-03T12:43:50.755Z,12.93
2023-03-03T12:46:41.709Z,18.58
2023-03-03T12:49:09.037Z,14.82
2023-03-03T12:51:50.046Z,24.95
2023-03-03T12:54:37.419Z,16.60
2023-03-03T12:57:04.849Z,19.63
2023-03-03T12:59:32.245Z,44.60
2023-03-03T13:02:18.593Z,19.70
2023-03-03T13:04:55.359Z,15.82
2023-03-03T13:07:22.703Z,14.23
2023-03-03T13:10:03.150Z,13.45
2023-03-03T13:12:39.608Z,21.13
2023-03-03T13:15:26.872Z,30.15
2023-03-03T13:18:17.569Z,21.55
2023-03-03T13:20:53.046Z,14.45
2023-03-03T13:23:32.051Z,10.95
2023-03-03T13:26:05.600Z,16.10
2023-03-03T13:28:35.691Z,19.90
2023-03-03T13:31:06.690Z,26.95
2023-03-03T13:33:37.539Z,13.45
2023-03-03T13:36:08.379Z,14.50
2023-03-03T13:38:42.091Z,12.45
2023-03-03T13:41:25.120Z,28.10
2023-03-03T13:44:00.935Z,23.10
2023-03-03T13:46:37.606Z,38.47
2023-03-03T13:49:14.151Z,208.85
2023-03-03T13:51:50.839Z,57.35
2023-03-03T13:54:28.460Z,15.52
2023-03-03T13:57:08.742Z,10.27
2023-03-03T13:59:46.719Z,13.05
2023-03-03T14:02:29.963Z,12.48
2023-03-03T14:05:04.715Z,96.55
2023-03-03T14:07:37.880Z,97.47
2023-03-03T14:10:19.920Z,86.88
2023-03-03T14:13:04.274Z,29.15
2023-03-03T14:15:33.990Z,41.08
2023-03-03T14:18:13.017Z,68.30
2023-03-03T14:20:42.287Z,67.40
2023-03-03T14:23:18.360Z,27.67
2023-03-03T14:25:54.490Z,37.72
2023-03-03T14:28:24.038Z,17.38
2023-03-03T14:30:53.884Z,45.90
2023-03-03T14:33:22.495Z,21.50
2023-03-03T14:35:50.335Z,13.27
2023-03-03T14:38:19.369Z,33.92
2023-03-03T14:40:47.707Z,34.60
2023-03-03T14:43:34.191Z,18.67
2023-03-03T14:46:21.560Z,9.50
2023-03-03T14:48:52.584Z,8.68
2023-03-03T14:51:38.445Z,9.77
2023-03-03T14:54:09.724Z,99.82
2023-03-03T14:56:39.565Z,45.72
2023-03-03T14:59:28.268Z,26.55
2023-03-03T15:02:01.749Z,14.23
2023-03-03T15:04:31.197Z,11.73
2023-03-03T15:06:59.438Z,8.20
2023-03-03T15:09:43.231Z,19.05
2023-03-03T15:12:24.727Z,5.93
2023-03-03T15:15:10.135Z,15.15
2023-03-03T15:17:58.148Z,18.95
2023-03-03T15:20:25.497Z,7.97
2023-03-03T15:23:16.255Z,7.75
2023-03-03T15:25:53.954Z,6.22
2023-03-03T15:28:24.999Z,13.57
2023-03-03T15:31:13.112Z,10.93
2023-03-03T15:33:59.469Z,6.53
2023-03-03T15:36:48.834Z,7.97
2023-03-03T15:39:19.363Z,9.30
2023-03-03T15:41:59.805Z,6.50
2023-03-03T15:44:33.312Z,5.28
2023-03-03T15:47:03.764Z,9.27
2023-03-03T15:49:56.305Z,13.40
2023-03-03T15:52:34.688Z,9.68
2023-03-03T15:55:15.676Z,7.75
2023-03-03T15:57:43.483Z,8.82
2023-03-03T16:00:26.393Z,7.43
2023-03-03T16:02:58.418Z,9.30
2023-03-03T16:05:34.579Z,8.87
2023-03-03T16:08:05.832Z,26.08
2023-03-03T16:10:55.990Z,12.27
2023-03-03T16:13:32.096Z,9.45
2023-03-03T16:16:03.356Z,11.07
2023-03-03T16:18:58.721Z,13.15
2023-03-03T16:21:38.690Z,14.60
2023-03-03T16:24:18.272Z,18.10
2023-03-03T16:26:55.132Z,14.63
2023-03-03T16:29:28.472Z,14.00
2023-03-03T16:34:26.842Z,12.13
2023-03-03T16:37:12.806Z,12.48
2023-03-03T16:39:53.009Z,11.20
2023-03-03T16:42:27.818Z,16.95
2023-03-03T16:45:01.124Z,19.20
2023-03-03T16:50:05.920Z,9.93
2023-03-03T16:52:38.150Z,31.27
2023-03-03T16:55:18.738Z,16.90
2023-03-03T16:57:58.372Z,70.32
2023-03-03T17:00:29.872Z,14.82
2023-03-03T17:03:04.940Z,12.15
2023-03-03T17:05:32.042Z,11.73
2023-03-03T17:07:59.303Z,14.95
2023-03-03T17:10:34.620Z,12.50
2023-03-03T17:13:04.712Z,8.43
2023-03-03T17:15:32.018Z,7.38
2023-03-03T17:18:05.106Z,8.30
2023-03-03T17:20:51.099Z,7.45
2023-03-03T17:23:37.212Z,8.75
2023-03-03T17:26:23.441Z,8.35
2023-03-03T17:29:09.616Z,11.05
2023-03-03T17:31:46.565Z,18.40
2023-03-03T17:34:16.746Z,47.28
2023-03-03T17:36:46.745Z,35.08
2023-03-03T17:39:20.987Z,30.80
2023-03-03T17:41:55.808Z,21.33
2023-03-03T17:44:33.976Z,16.58
2023-03-03T17:47:05.547Z,11.75
2023-03-03T17:49:42.057Z,8.45
2023-03-03T17:52:24.704Z,10.07
2023-03-03T17:55:04.842Z,6.43
2023-03-03T17:57:35.047Z,9.88
2023-03-03T18:00:28.371Z,8.75
2023-03-03T18:02:58.657Z,10.30
2023-03-03T18:05:37.275Z,26.50
2023-03-03T18:08:14.451Z,18.08
2023-03-03T18:10:50.851Z,14.93
2023-03-03T18:13:28.360Z,19.60
2023-03-03T18:16:11.741Z,10.45
2023-03-03T18:18:51.475Z,9.93
2023-03-03T18:21:18.656Z,12.55
2023-03-03T18:23:46.919Z,13.88
2023-03-03T18:26:31.716Z,18.23
2023-03-03T18:29:17.248Z,13.10
2023-03-03T18:32:04.750Z,9.63
2023-03-03T18:34:35.446Z,10.07
2023-03-03T18:37:08.918Z,10.57
2023-03-03T18:39:45.603Z,12.38
2023-03-03T18:42:12.740Z,11.20
2023-03-03T18:44:39.983Z,11.88
2023-03-03T18:47:07.303Z,9.55
2023-03-03T18:49:46.641Z,13.10
2023-03-03T18:52:27.787Z,11.18
2023-03-03T18:55:04.071Z,12.38
2023-03-03T18:57:31.555Z,12.48
2023-03-03T19:00:18.993Z,11.02
2023-03-03T19:02:56.311Z,11.10
2023-03-03T19:05:29.003Z,10.98
2023-03-03T19:08:00.273Z,11.63
2023-03-03T19:10:47.699Z,13.10
2023-03-03T19:13:38.549Z,9.52
2023-03-03T19:16:06.455Z,9.65
2023-03-03T19:18:56.653Z,8.65
2023-03-03T19:21:27.417Z,11.10
2023-03-03T19:24:02.103Z,13.63
2023-03-03T19:26:42.058Z,12.25
2023-03-03T19:29:27.790Z,13.80
2023-03-03T19:31:54.995Z,13.95
2023-03-03T19:34:45.511Z,10.60
2023-03-03T19:37:31.427Z,10.30
2023-03-03T19:40:02.638Z,11.27
2023-03-03T19:42:47.683Z,12.25
2023-03-03T19:45:17.964Z,17.88
2023-03-03T19:47:58.793Z,15.30
2023-03-03T19:50:34.486Z,13.38
2023-03-03T19:53:07.082Z,12.32
2023-03-03T19:55:45.316Z,14.43
2023-03-03T19:58:12.598Z,13.20
2023-03-03T20:00:44.126Z,12.40
2023-03-03T20:03:30.059Z,14.65
2023-03-03T20:06:03.363Z,14.05
2023-03-03T20:11:02.244Z,10.63
2023-03-03T20:13:37.556Z,11.68
2023-03-03T20:16:19.995Z,12.13
2023-03-03T20:19:03.648Z,10.68
2023-03-03T20:21:35.847Z,12.32
2023-03-03T20:24:30.544Z,12.00
2023-03-03T20:27:00.375Z,12.50
2023-03-03T20:29:52.504Z,10.95
2023-03-03T20:32:22.714Z,16.13
2023-03-03T20:35:21.112Z,13.55
2023-03-03T20:37:55.841Z,15.18
2023-03-03T20:40:30.858Z,10.18
2023-03-03T20:43:06.337Z,13.43
2023-03-03T20:45:53.924Z,14.27
2023-03-03T20:48:36.674Z,12.70
2023-03-03T20:51:24.331Z,14.17
2023-03-03T20:53:51.447Z,16.75
2023-03-03T20:56:36.054Z,17.73
2023-03-03T20:59:03.332Z,14.75
2023-03-03T21:01:36.680Z,15.38
2023-03-03T21:06:41.409Z,13.77
2023-03-03T21:09:08.691Z,10.88
2023-03-03T21:11:38.873Z,13.18
2023-03-03T21:14:17.315Z,16.73
2023-03-03T21:16:44.639Z,13.57
2023-03-03T21:19:12.657Z,13.23
2023-03-03T21:21:40.862Z,12.05
2023-03-03T21:24:09.200Z,12.95
2023-03-03T21:26:46.748Z,10.63
2023-03-03T21:29:18.180Z,11.45
2023-03-03T21:31:49.467Z,12.52
2023-03-03T21:34:35.175Z,14.43
2023-03-03T21:37:03.344Z,13.90
2023-03-03T21:39:34.671Z,12.88
2023-03-03T21:42:09.046Z,11.60
2023-03-03T21:44:39.348Z,15.55
2023-03-03T21:47:07.231Z,16.52
2023-03-03T21:49:34.761Z,14.88
2023-03-03T21:52:02.493Z,15.88
2023-03-03T21:54:29.694Z,12.75
2023-03-03T21:56:56.857Z,14.82
2023-03-03T21:59:24.081Z,15.18
2023-03-03T22:01:51.309Z,16.42
2023-03-03T22:04:18.959Z,16.13
2023-03-03T22:06:46.143Z,16.40
2023-03-03T22:09:13.388Z,18.42
2023-03-03T22:11:40.547Z,16.42
2023-03-03T22:14:08.484Z,17.67
2023-03-03T22:16:35.777Z,17.30
2023-03-03T22:19:03.660Z,18.73
2023-03-03T22:21:31.299Z,16.80
2023-03-03T22:23:58.812Z,20.58
2023-03-03T22:26:25.965Z,19.48
2023-03-03T22:28:53.226Z,18.23
2023-03-03T22:31:20.608Z,18.13
2023-03-03T22:33:48.738Z,20.25
2023-03-03T22:36:16.215Z,19.75
2023-03-03T22:38:43.378Z,19.92
2023-03-03T22:41:10.760Z,21.23
2023-03-03T22:43:38.238Z,22.48
2023-03-03T22:46:05.485Z,19.73
2023-03-03T22:48:33.116Z,21.42
2023-03-03T22:51:00.363Z,23.38
2023-03-03T22:53:27.883Z,24.40
2023-03-03T22:55:55.295Z,21.92
2023-03-03T22:58:25.524Z,22.58
2023-03-03T23:00:54.077Z,21.58
2023-03-03T23:03:21.690Z,22.50
2023-03-03T23:05:51.645Z,20.48
2023-03-03T23:08:20.300Z,22.27
2023-03-03T23:10:47.919Z,20.65
2023-03-03T23:13:15.328Z,24.75
2023-03-03T23:15:42.623Z,22.30
2023-03-03T23:18:09.916Z,23.83
2023-03-03T23:20:37.611Z,22.38
2023-03-03T23:23:05.095Z,22.05
2023-03-03T23:25:32.277Z,24.08
2023-03-03T23:27:59.529Z,25.17
2023-03-03T23:30:26.738Z,26.33
2023-03-03T23:32:54.185Z,27.77
2023-03-03T23:35:21.915Z,21.30
2023-03-03T23:37:49.282Z,27.27
2023-03-03T23:40:16.636Z,22.77
2023-03-03T23:42:44.114Z,19.83
2023-03-03T23:45:12.066Z,20.10
2023-03-03T23:47:39.232Z,21.27
2023-03-03T23:50:07.148Z,20.80
2023-03-03T23:52:34.341Z,24.33
2023-03-03T23:55:01.961Z,21.67
2023-03-03T23:57:29.388Z,22.98
2023-03-03T23:59:56.660Z,19.80
